Texas Logo

Rockwall, TX Single Family Real Estate Listings

391 Total Real Estate Listings * Click on table heading to sort
Date Posted Property Type Style Address Price Living Area Lot Size Price/Sq Ft.
2018-08-17 Single Family Traditional 716 Brazos Way Rockwall, TX 75032 $387,000 2,966 sq. ft. 10,019 sq. ft. $130
2018-08-17 Single Family Traditional 1474 Red Wolf Drive Rockwall, TX 75087 $278,000 2,428 sq. ft. 8,276 sq. ft. $114
2018-08-17 Single Family Traditional 1581 Coastal Drive Rockwall, TX 75087 $349,950 3,695 sq. ft. 7,405 sq. ft. $95
2018-08-17 Single Family Traditional 544 Tall Oaks Place Rockwall, TX 75087 $339,900 2,737 sq. ft. 11,761 sq. ft. $124
2018-08-17 Single Family 474 Keystone Bend Rockwall, TX 75032 $949,900 4,918 sq. ft. 22,651 sq. ft. $193
2018-08-17 Single Family Ranch 776 Lazy Brooke Drive Rockwall, TX 75087 $559,853 4,358 sq. ft. 10,890 sq. ft. $128
2018-08-17 Single Family 1235 Fairlakes Pointe Rockwall, TX 75087 $386,000 3,263 sq. ft. 9,583 sq. ft. $118
2018-08-17 Single Family Traditional 989 Foxhall Drive Rockwall, TX 75087 $523,990 3,749 sq. ft. 10,019 sq. ft. $140
2018-08-17 Single Family 1711 Pillory Drive Rockwall, TX 75032 $449,900 3,657 sq. ft. 13,068 sq. ft. $123
2018-08-17 Single Family Ranch 2629 Cypress Drive Rockwall, TX 75087 $586,090 4,113 sq. ft. 16,117 sq. ft. $142
2018-08-17 Single Family Traditional 1213 Lakeshore Drive Rockwall, TX 75087 $439,900 3,144 sq. ft. 16,117 sq. ft. $140
2018-08-17 Single Family 3103 Bourbon Street Circle Rockwall, TX 75032 $260,000 2,096 sq. ft. 3,049 sq. ft. $124
2018-08-16 Single Family Traditional 1482 Hickory Creek Lane Rockwall, TX 75032 $244,900 2,720 sq. ft. 6,534 sq. ft. $90
2018-08-15 Single Family 2663 Dowell Road Rockwall, TX 75032 $250,000 2,304 sq. ft. 130,680 sq. ft. $109
2018-08-15 Single Family 2663 Dowell Road Rockwall, TX 75032 $550,000 2,304 sq. ft. 557,132 sq. ft. $239
2018-08-14 Single Family 4109 Blythe Street Rockwall, TX 75032 $339,815 2,333 sq. ft. 9,148 sq. ft. $146
2018-08-14 Single Family Traditional 1588 Hills Drive Rockwall, TX 75087 $272,000 2,660 sq. ft. 10,019 sq. ft. $102
2018-08-14 Single Family 3913 Betty Street Rockwall, TX 75087 $385,000 3,769 sq. ft. 10,019 sq. ft. $102
2018-08-14 Single Family Traditional 3001 Dusty Ridge Drive Rockwall, TX 75032 $239,900 1,954 sq. ft. 8,276 sq. ft. $123
2018-08-14 Single Family Traditional 3089 Wildflower Way Rockwall, TX 75032 $219,000 1,245 sq. ft. 6,970 sq. ft. $176
2018-08-13 Single Family Early American 389 Jordan Farm Circle Rockwall, TX 75087 $399,000 2,054 sq. ft. 4,356 sq. ft. $194
2018-08-12 Single Family Traditional 917 Alamo Rockwall, TX 75087 $228,500 1,332 sq. ft. 20,909 sq. ft. $172
2018-08-12 Single Family Traditional 3909 Betty Street Rockwall, TX 75087 $394,000 3,227 sq. ft. 10,019 sq. ft. $122
2018-08-11 Single Family Traditional 328 Cresthaven Drive Rockwall, TX 75032 $239,900 1,532 sq. ft. 7,405 sq. ft. $157
2018-08-10 Single Family Traditional 304 Rockbrook Drive Rockwall, TX 75087 $348,000 3,285 sq. ft. 13,068 sq. ft. $106
2018-08-10 Single Family Traditional 1518 Melrose Lane Rockwall, TX 75032 $215,000 2,085 sq. ft. 6,970 sq. ft. $103
2018-08-10 Single Family Traditional 119 Freedom Court Rockwall, TX 75032 $340,000 2,295 sq. ft. 8,276 sq. ft. $148
2018-08-10 Single Family Traditional 601 Primrose Lane Rockwall, TX 75032 $259,000 2,348 sq. ft. 8,276 sq. ft. $110
2018-08-10 Single Family Traditional 944 Dogwood Lane Rockwall, TX 75087 $246,100 1,780 sq. ft. 8,712 sq. ft. $138
2018-08-09 Single Family Traditional 167 Lynne Drive Rockwall, TX 75032 $235,000 1,750 sq. ft. 6,970 sq. ft. $134
2018-08-09 Single Family 985 Foxhall Drive Rockwall, TX 75087 $502,990 3,108 sq. ft. 10,019 sq. ft. $162
2018-08-07 Single Family Contemporary/Modern 222 Crestbrook Drive Rockwall, TX 75087 $499,900 3,741 sq. ft. 9,583 sq. ft. $134
2018-08-07 Single Family Traditional 993 Equestrian Drive Rockwall, TX 75032 $445,000 2,624 sq. ft. 43,996 sq. ft. $170
2018-08-06 Single Family Traditional 2061 Harvester Drive Rockwall, TX 75032 $209,900 1,591 sq. ft. 10,454 sq. ft. $132
2018-08-06 Single Family Traditional 801 Alamo Road Rockwall, TX 75087 $285,000 1,820 sq. ft. 4,792 sq. ft. $157
2018-08-05 Single Family Ranch; Traditional 837 Hunters Glen Rockwall, TX 75032 $479,900 3,212 sq. ft. 26,572 sq. ft. $149
2018-08-04 Single Family Ranch 5114 Dowell Circle Rockwall, TX 75032 $210,000 3,384 sq. ft. 94,525 sq. ft. $62
2018-08-04 Single Family Traditional 3217 Pecos Lane Rockwall, TX 75032 $355,999 2,335 sq. ft. 12,632 sq. ft. $152
2018-08-03 Single Family Traditional 917 Pleasant View Drive Rockwall, TX 75087 $499,500 4,192 sq. ft. 8,276 sq. ft. $119
2018-08-03 Single Family Traditional 4198 Ravenbank Drive Rockwall, TX 75087 $474,000 3,219 sq. ft. 10,454 sq. ft. $147
2018-08-03 Single Family Traditional 1360 Gold Coast Drive Rockwall, TX 75087 $374,900 3,551 sq. ft. 9,148 sq. ft. $106
2018-08-03 Single Family Traditional 1655 Plummer Drive Rockwall, TX 75087 $349,000 2,445 sq. ft. 13,504 sq. ft. $143
2018-08-03 Single Family Traditional 121 Clipper Court Rockwall, TX 75032 $349,000 2,668 sq. ft. 8,712 sq. ft. $131
2018-08-03 Single Family Traditional 161 Haven Ridge Drive Rockwall, TX 75032 $286,500 2,856 sq. ft. 11,761 sq. ft. $100
2018-08-03 Single Family Traditional 710 Forest Trace Rockwall, TX 75087 $310,000 2,410 sq. ft. 10,454 sq. ft. $129
2018-08-03 Single Family Traditional 1021 Foxhall Drive Rockwall, TX 75087 $534,900 4,284 sq. ft. 11,326 sq. ft. $125
2018-08-03 Single Family 210 Joe White Street Rockwall, TX 75087 $229,900 1,588 sq. ft. 9,148 sq. ft. $145
2018-08-03 Single Family Traditional 184 Raintree Court Rockwall, TX 75087 $289,000 2,837 sq. ft. 10,019 sq. ft. $102
2018-08-02 Single Family Traditional 611 Fannin Street Rockwall, TX 75087 $189,000 1,508 sq. ft. 10,890 sq. ft. $125
2018-08-02 Single Family 223 Althea Road Rockwall, TX 75032 $153,000 1,005 sq. ft. 7,405 sq. ft. $152
2018-08-02 Single Family Traditional 780 Hanover Drive Rockwall, TX 75087 $439,000 3,103 sq. ft. 10,019 sq. ft. $141
2018-08-01 Single Family Traditional 1630 Winding Creek Rockwall, TX 75032 $534,000 3,484 sq. ft. 65,340 sq. ft. $153
2018-08-01 Single Family Traditional 1390 Glenwick Drive Rockwall, TX 75032 $235,000 2,754 sq. ft. 8,712 sq. ft. $85
2018-08-01 Single Family 162 Cresthaven Drive Rockwall, TX 75032 $269,850 2,563 sq. ft. 6,534 sq. ft. $105
2018-08-01 Single Family Traditional 1392 Napa Drive Rockwall, TX 75087 $299,900 3,221 sq. ft. 7,841 sq. ft. $93
2018-08-01 Single Family 711 Village Green Drive Rockwall, TX 75087 $230,000 1,801 sq. ft. 9,583 sq. ft. $128
2018-08-01 Single Family Traditional 3315 Royal Ridge Drive Rockwall, TX 75087 $389,000 2,660 sq. ft. 7,405 sq. ft. $146
2018-08-01 Single Family Traditional 1514 Derby Drive Rockwall, TX 75032 $389,000 2,933 sq. ft. 5,663 sq. ft. $133
2018-08-01 Single Family Traditional 671 Danielle Court Rockwall, TX 75087 $326,750 2,507 sq. ft. 6,970 sq. ft. $130
2018-08-01 Single Family 320 Shepards Hill Drive Rockwall, TX 75087 $269,900 2,187 sq. ft. 10,019 sq. ft. $123
2018-08-01 Single Family Traditional 829 Cedarbluff Drive Rockwall, TX 75087 $334,500 2,445 sq. ft. 10,019 sq. ft. $137
2018-08-01 Single Family Traditional 5457 Ranger Drive Rockwall, TX 75032 $329,999 3,036 sq. ft. 7,405 sq. ft. $109
2018-07-31 Single Family Contemporary/Modern; Traditional 1525 Tree Haven Court Rockwall, TX 75032 $464,999 2,712 sq. ft. 65,340 sq. ft. $171
2018-07-31 Single Family Traditional 168 Sequoia Road Rockwall, TX 75032 $274,900 2,700 sq. ft. 9,148 sq. ft. $102
2018-07-31 Single Family Traditional 1545 Derby Drive Rockwall, TX 75032 $357,000 2,317 sq. ft. 5,663 sq. ft. $154
2018-07-31 Single Family Traditional 2800 Mira Vista Lane Rockwall, TX 75032 $499,000 3,658 sq. ft. 15,246 sq. ft. $136
2018-07-29 Single Family Traditional 2105 Garden Crest Drive Rockwall, TX 75087 $309,000 2,465 sq. ft. 6,098 sq. ft. $125
2018-07-27 Single Family 112 Weston Court Rockwall, TX 75032 $249,600 2,418 sq. ft. 23,522 sq. ft. $103
2018-07-27 Single Family Traditional 764 Windsong Lane Rockwall, TX 75032 $650,000 4,170 sq. ft. 17,424 sq. ft. $156
2018-07-27 Single Family Traditional 333 Harborview Drive Rockwall, TX 75032 $279,000 2,006 sq. ft. 10,019 sq. ft. $139
2018-07-27 Single Family 3301 Pecos Lane Rockwall, TX 75032 $393,070 2,943 sq. ft. 12,632 sq. ft. $134
2018-07-27 Single Family Traditional 2820 Beverly Drive Rockwall, TX 75032 $249,990 2,400 sq. ft. 6,970 sq. ft. $104
2018-07-27 Single Family Traditional 1415 Ashley Court Rockwall, TX 75032 $575,000 3,520 sq. ft. 70,567 sq. ft. $163
2018-07-27 Single Family 808 Alamo Road Rockwall, TX 75087 $409,000 2,946 sq. ft. 10,890 sq. ft. $139
2018-07-27 Single Family Traditional 1925 Clubview Drive Rockwall, TX 75087 $329,000 2,642 sq. ft. 7,405 sq. ft. $125
2018-07-27 Single Family Traditional 3841 Chestnut Trail Rockwall, TX 75032 $249,900 2,070 sq. ft. 11,761 sq. ft. $121
2018-07-27 Single Family Traditional 105 Liberty Lane Rockwall, TX 75032 $485,000 3,782 sq. ft. 18,731 sq. ft. $128
2018-07-26 Single Family 2625 Cypress Drive Rockwall, TX 75087 $517,990 3,006 sq. ft. 16,117 sq. ft. $172
2018-07-26 Single Family 2613 Cypress Drive Rockwall, TX 75087 $515,990 3,279 sq. ft. 16,117 sq. ft. $157
2018-07-26 Single Family Contemporary/Modern 299 Harborview Drive Rockwall, TX 75032 $525,000 2,781 sq. ft. 6,098 sq. ft. $189
2018-07-26 Single Family Traditional 2068 State Highway 66 Rockwall, TX 75087 $355,000 2,325 sq. ft. 43,996 sq. ft. $153
2018-07-26 Single Family 2232 Riverbirch Lane Rockwall, TX 75032 $252,000 2,212 sq. ft. 14,375 sq. ft. $114
2018-07-26 Single Family Traditional 2325 Gold Coast Court Rockwall, TX 75087 $415,000 3,589 sq. ft. 12,197 sq. ft. $116
2018-07-26 Single Family Mediterranean 1872 Huron Drive Rockwall, TX 75087 $395,000 3,334 sq. ft. 7,841 sq. ft. $118
2018-07-26 Single Family Traditional 336 Cresthaven Drive Rockwall, TX 75032 $199,000 1,233 sq. ft. 8,276 sq. ft. $161
2018-07-25 Single Family Traditional 1504 Calling Circle Rockwall, TX 75087 $320,000 2,449 sq. ft. 13,068 sq. ft. $131
2018-07-25 Single Family 4648 Parkwood Drive Rockwall, TX 75032 $649,900 3,678 sq. ft. 12,632 sq. ft. $177
2018-07-25 Single Family Traditional 3009 Fontana Boulevard Rockwall, TX 75032 $324,700 2,334 sq. ft. 16,988 sq. ft. $139
2018-07-25 Single Family Traditional 517 Limmerhill Drive Rockwall, TX 75087 $600,000 4,449 sq. ft. 21,780 sq. ft. $135
2018-07-25 Single Family Traditional 656 Sunflower Trail Rockwall, TX 75032 $219,750 1,279 sq. ft. 6,970 sq. ft. $172
2018-07-24 Single Family Traditional 1403 Phelps Lake Drive Rockwall, TX 75087 $329,000 2,676 sq. ft. 12,197 sq. ft. $123
2018-07-24 Single Family Traditional 606 Primrose Lane Rockwall, TX 75032 $244,000 1,453 sq. ft. 19,166 sq. ft. $168
2018-07-23 Single Family Traditional 2001 Trail Glen Rockwall, TX 75032 $329,900 2,856 sq. ft. 10,019 sq. ft. $116
2018-07-22 Single Family Traditional 2470 Fieldcrest Drive Rockwall, TX 75032 $249,999 1,987 sq. ft. 8,276 sq. ft. $126
2018-07-21 Single Family Traditional 1225 Islemere Drive Rockwall, TX 75087 $360,000 3,041 sq. ft. 8,712 sq. ft. $118
2018-07-21 Single Family 2240 Teagle Drive Rockwall, TX 75032 $280,000 2,153 sq. ft. 9,583 sq. ft. $130
2018-07-20 Single Family Traditional 3111 San Saba Court Rockwall, TX 75032 $369,900 2,562 sq. ft. 20,473 sq. ft. $144
2018-07-20 Single Family 804 York Drive Rockwall, TX 75087 $449,000 3,516 sq. ft. 7,405 sq. ft. $128
2018-07-20 Single Family 416 Coachlight Trail Rockwall, TX 75087 $265,000 2,158 sq. ft. 8,276 sq. ft. $123
2018-07-20 Single Family Traditional 122 Puritan Court Rockwall, TX 75032 $374,500 3,498 sq. ft. 6,534 sq. ft. $107
2018-07-20 Single Family Ranch 4 Kimberly Lane Rockwall, TX 75087 $425,000 2,522 sq. ft. 106,286 sq. ft. $169
2018-07-19 Single Family 1141 Winding Ridge Lane Rockwall, TX 75032 $445,000 3,061 sq. ft. 73,616 sq. ft. $145
2018-07-19 Single Family Traditional 1211 Highbluff Lane Rockwall, TX 75087 $274,000 2,191 sq. ft. 6,970 sq. ft. $125
2018-07-19 Single Family 262 Fm 552 Rockwall, TX 75087 $574,900 3,697 sq. ft. 87,120 sq. ft. $156
2018-07-19 Single Family Traditional 1932 Gullwing Drive Rockwall, TX 75087 $295,000 2,624 sq. ft. 6,534 sq. ft. $112
2018-07-19 Single Family 1010 Sunnyvale Drive Rockwall, TX 75087 $399,990 3,191 sq. ft. 8,712 sq. ft. $125
2018-07-19 Single Family 531 Bedford Falls Lane Rockwall, TX 75087 $465,307 3,120 sq. ft. 9,583 sq. ft. $149
2018-07-18 Single Family 307 Clark Street Rockwall, TX 75087 $425,000 2,436 sq. ft. 51,401 sq. ft. $174
2018-07-18 Single Family 3806 Laurel Crossing Drive Rockwall, TX 75032 $259,900 2,072 sq. ft. 11,761 sq. ft. $125
2018-07-18 Single Family Traditional 3718 Huntcliff Drive Rockwall, TX 75087 $449,900 4,211 sq. ft. 11,761 sq. ft. $107
2018-07-18 Single Family 787 Kensington Rockwall, TX 75032 $555,395 3,531 sq. ft. 63,162 sq. ft. $157
2018-07-18 Single Family Traditional 1035 Pinehurst Drive Rockwall, TX 75087 $449,990 4,409 sq. ft. 6,970 sq. ft. $102
2018-07-18 Single Family 1730 Amalfi Rockwall, TX 75032 $298,242 2,064 sq. ft. 8,276 sq. ft. $144
2018-07-18 Single Family Traditional 115 Teakwood Drive Rockwall, TX 75087 $279,900 1,857 sq. ft. 10,019 sq. ft. $151
2018-07-18 Single Family Ranch; Traditional 106 Reba Road Rockwall, TX 75032 $262,500 1,869 sq. ft. 10,019 sq. ft. $140
2018-07-18 Single Family 781 Miramar Drive Rockwall, TX 75087 $380,000 3,312 sq. ft. 6,098 sq. ft. $115
2018-07-18 Single Family Traditional 1755 Cresthill Drive Rockwall, TX 75087 $292,500 2,080 sq. ft. 5,663 sq. ft. $141
2018-07-17 Single Family Traditional 1520 Winding Creek Lane Rockwall, TX 75032 $459,900 2,890 sq. ft. 65,340 sq. ft. $159
2018-07-17 Single Family Traditional 827 Oak Hollow Lane Rockwall, TX 75087 $279,900 2,598 sq. ft. 8,276 sq. ft. $108
2018-07-17 Single Family Traditional 423 Miramar Drive Rockwall, TX 75087 $399,990 3,192 sq. ft. 7,841 sq. ft. $125
2018-07-16 Single Family Mediterranean 3506 Lakeside Drive Rockwall, TX 75087 $415,950 2,773 sq. ft. 5,227 sq. ft. $150
2018-07-16 Single Family Traditional 1367 Ventura Drive Rockwall, TX 75087 $314,000 2,901 sq. ft. 13,939 sq. ft. $108
2018-07-15 Single Family Traditional 7135 Harlan Drive Rockwall, TX 75087 $265,900 2,006 sq. ft. 10,454 sq. ft. $133
2018-07-15 Single Family Traditional 1981 Trail Rockwall, TX 75032 $249,500 1,906 sq. ft. 9,583 sq. ft. $131
2018-07-14 Single Family Split Level 3295 Bastrop Court Rockwall, TX 75032 $495,000 4,823 sq. ft. 20,473 sq. ft. $103
2018-07-13 Single Family Traditional 1130 Lake Glen Circle Rockwall, TX 75087 $399,000 3,456 sq. ft. 10,019 sq. ft. $115
2018-07-13 Single Family Traditional 3015 Oak Drive Rockwall, TX 75032 $359,900 3,070 sq. ft. 10,019 sq. ft. $117
2018-07-13 Single Family Traditional 487 Primrose Lane Rockwall, TX 75032 $227,900 1,446 sq. ft. 6,970 sq. ft. $158
2018-07-13 Single Family Traditional 103 Oakridge Drive Rockwall, TX 75032 $181,500 1,417 sq. ft. 6,534 sq. ft. $128
2018-07-13 Single Family Traditional 1205 Lake Glen Circle Rockwall, TX 75087 $405,000 3,589 sq. ft. 12,197 sq. ft. $113
2018-07-12 Single Family Traditional 708 Alamo Road Rockwall, TX 75087 $187,500 960 sq. ft. 5,663 sq. ft. $195
2018-07-12 Single Family Contemporary/Modern 633 Courageous Drive Rockwall, TX 75032 $649,000 3,248 sq. ft. 5,663 sq. ft. $200
2018-07-12 Single Family Traditional 176 Pelican Cove Drive Rockwall, TX 75087 $275,000 2,446 sq. ft. 8,276 sq. ft. $112
2018-07-12 Single Family Traditional 634 Arcadia Way Rockwall, TX 75087 $399,900 3,577 sq. ft. 10,454 sq. ft. $112
2018-07-12 Single Family 2760 Beacon Hill Drive Rockwall, TX 75087 $247,900 2,102 sq. ft. 10,019 sq. ft. $118
2018-07-11 Single Family Traditional 2681 Nova Park Court Rockwall, TX 75087 $307,000 2,739 sq. ft. 6,970 sq. ft. $112
2018-07-11 Single Family Traditional 1070 Potter Avenue Rockwall, TX 75087 $305,000 2,334 sq. ft. 8,712 sq. ft. $131
2018-07-10 Single Family Traditional 843 Ravenhurst Drive Rockwall, TX 75087 $399,900 3,281 sq. ft. 10,454 sq. ft. $122
2018-07-10 Single Family Traditional 1961 Trail Glen Rockwall, TX 75032 $245,000 2,181 sq. ft. $112
2018-07-10 Single Family Traditional 164 Westwood Drive Rockwall, TX 75032 $240,000 1,605 sq. ft. 8,712 sq. ft. $150
2018-07-09 Single Family 4214 Selborne Drive Rockwall, TX 75032 $415,630 3,297 sq. ft. 10,890 sq. ft. $126
2018-07-09 Single Family 4210 Stable Glen Drive Rockwall, TX 75032 $447,120 3,593 sq. ft. 10,890 sq. ft. $124
2018-07-09 Single Family Ranch 1700 Gail Lane Rockwall, TX 75087 $1,500,000 6,774 sq. ft. 2,308,680 sq. ft. $221
2018-07-08 Single Family Traditional 131 Tupelo Drive Rockwall, TX 75087 $245,000 1,850 sq. ft. $132
2018-07-08 Single Family Traditional 3200 Oak Drive Rockwall, TX 75032 $399,888 3,020 sq. ft. 13,504 sq. ft. $132
2018-07-07 Single Family Traditional 505 Rogers Way Rockwall, TX 75087 $180,000 2,057 sq. ft. 7,405 sq. ft. $88
2018-07-07 Single Family Traditional 2007 Lakeshore Rockwall, TX 75087 $244,900 1,843 sq. ft. 16,117 sq. ft. $133
2018-07-06 Single Family Traditional 672 Woodland Way Rockwall, TX 75087 $305,000 2,843 sq. ft. 6,098 sq. ft. $107
2018-07-06 Single Family Contemporary/Modern; Split Level 408 Endeavor Court Rockwall, TX 75032 $479,900 3,200 sq. ft. 5,227 sq. ft. $150
2018-07-06 Single Family Traditional 280 Beech Drive Rockwall, TX 75032 $234,900 1,987 sq. ft. 7,841 sq. ft. $118
2018-07-06 Single Family Traditional 790 Bordeaux Drive Rockwall, TX 75087 $424,000 3,396 sq. ft. 6,534 sq. ft. $125
2018-07-06 Single Family Traditional 302 Boydstun Avenue Rockwall, TX 75087 $249,900 1,876 sq. ft. 11,761 sq. ft. $133
2018-07-06 Single Family 1467 Carmel Drive Rockwall, TX 75087 $356,225 2,641 sq. ft. 8,712 sq. ft. $135
2018-07-06 Single Family Traditional 2818 Tangleglen Drive Rockwall, TX 75032 $249,900 2,590 sq. ft. 6,970 sq. ft. $96
2018-07-06 Single Family Traditional 542 Chisholm Ranch Drive Rockwall, TX 75032 $450,000 3,309 sq. ft. 72,310 sq. ft. $136
2018-07-06 Single Family Traditional 1029 Hampton Bay Drive Rockwall, TX 75087 $374,900 3,346 sq. ft. 6,970 sq. ft. $112
2018-07-06 Single Family Traditional 2165 Hodges Lake Drive Rockwall, TX 75032 $469,900 3,037 sq. ft. 43,560 sq. ft. $155
2018-07-06 Single Family Traditional 423 Monterey Drive Rockwall, TX 75087 $299,000 3,628 sq. ft. 10,019 sq. ft. $82
2018-07-06 Single Family Traditional 5510 Challenger Court Rockwall, TX 75032 $279,000 2,057 sq. ft. 6,534 sq. ft. $136
2018-07-05 Single Family Traditional 2175 Lake Estates Drive Rockwall, TX 75032 $439,994 3,834 sq. ft. 65,340 sq. ft. $115
2018-07-05 Single Family Traditional 2085 Berkdale Lane Rockwall, TX 75087 $365,000 3,935 sq. ft. 6,970 sq. ft. $93
2018-07-05 Single Family 138 Elmridge Circle Rockwall, TX 75032 $199,000 1,417 sq. ft. 7,405 sq. ft. $140
2018-07-05 Single Family Traditional 1102 Whispering Glen Rockwall, TX 75087 $259,999 2,014 sq. ft. 9,148 sq. ft. $129
2018-07-05 Single Family Oriental; Traditional 2835 Marcie Lane Rockwall, TX 75032 $650,000 4,055 sq. ft. 47,480 sq. ft. $160
2018-07-05 Single Family Traditional 2120 Barlass Drive Rockwall, TX 75087 $534,900 3,860 sq. ft. 20,038 sq. ft. $139
2018-07-05 Single Family 1245 Islemere Drive Rockwall, TX 75087 $330,000 2,302 sq. ft. 11,761 sq. ft. $143
2018-07-05 Single Family Traditional 557 Southwestern Drive Rockwall, TX 75087 $402,432 2,703 sq. ft. 10,019 sq. ft. $149
2018-07-05 Single Family Traditional 3194 Market Center Drive Rockwall, TX 75032 $276,000 2,303 sq. ft. 6,970 sq. ft. $120
2018-07-04 Single Family Mediterranean 3403 Waterview Trail Rockwall, TX 75087 $359,000 2,496 sq. ft. 6,534 sq. ft. $144
2018-07-03 Single Family 1245 Blue Brook Drive Rockwall, TX 75087 $309,000 2,467 sq. ft. 15,682 sq. ft. $125
2018-07-03 Single Family Traditional 708 Stillwater Drive Rockwall, TX 75087 $418,000 2,801 sq. ft. 10,890 sq. ft. $149
2018-07-03 Single Family Traditional 515 Southwestern Drive Rockwall, TX 75087 $484,514 4,095 sq. ft. 10,019 sq. ft. $118
2018-07-03 Single Family Traditional 571 Southwestern Drive Rockwall, TX 75087 $474,062 3,919 sq. ft. 10,019 sq. ft. $121
2018-07-03 Single Family Traditional 3139 Bourbon Street Circle Rockwall, TX 75032 $265,900 2,135 sq. ft. 3,485 sq. ft. $125
2018-07-02 Single Family Traditional 1938 Lakeshore Drive Rockwall, TX 75087 $289,500 2,033 sq. ft. 13,068 sq. ft. $142
2018-06-30 Single Family Traditional 2950 Goldenwave Rockwall, TX 75032 $252,900 2,198 sq. ft. 7,405 sq. ft. $115
2018-06-30 Single Family Traditional 2325 Desert Falls Lane Rockwall, TX 75087 $399,990 4,186 sq. ft. 11,761 sq. ft. $96
2018-06-29 Single Family Traditional 2105 Berkdale Lane Rockwall, TX 75087 $499,000 5,221 sq. ft. 10,890 sq. ft. $96
2018-06-29 Single Family Traditional 790 Deverson Drive Rockwall, TX 75087 $375,000 3,105 sq. ft. 6,534 sq. ft. $121
2018-06-29 Single Family Traditional 1670 Winding Creek Lane Rockwall, TX 75032 $569,000 4,626 sq. ft. 65,340 sq. ft. $123
2018-06-29 Single Family Traditional 783 Equestrian Drive Rockwall, TX 75032 $399,900 3,284 sq. ft. 43,996 sq. ft. $122
2018-06-29 Single Family Mediterranean 3504 Waterview Trail Rockwall, TX 75087 $349,900 2,437 sq. ft. 7,841 sq. ft. $144
2018-06-29 Single Family Traditional 130 Sceptre Drive Rockwall, TX 75032 $309,900 2,456 sq. ft. 12,632 sq. ft. $126
2018-06-29 Single Family Traditional 457 Livestock Drive Rockwall, TX 75032 $549,000 4,205 sq. ft. 65,776 sq. ft. $131
2018-06-29 Single Family Traditional 522 Life Spring Drive Rockwall, TX 75087 $582,500 4,110 sq. ft. 20,909 sq. ft. $142
2018-06-29 Single Family Traditional 1710 Lake Forest Drive Rockwall, TX 75087 $375,000 3,695 sq. ft. 8,712 sq. ft. $101
2018-06-28 Single Family Traditional 5901 Sceptre Drive Rockwall, TX 75032 $319,000 2,714 sq. ft. 9,583 sq. ft. $118
2018-06-28 Single Family Traditional 109 Liberty Lane Rockwall, TX 75032 $389,900 3,081 sq. ft. 15,246 sq. ft. $127
2018-06-28 Single Family Traditional 1600 Coastal Drive Rockwall, TX 75087 $544,900 3,063 sq. ft. 8,276 sq. ft. $178
2018-06-28 Single Family Mediterranean; Traditional 3907 Village Drive Rockwall, TX 75087 $199,900 1,522 sq. ft. 871 sq. ft. $131
2018-06-28 Single Family Traditional; Tudor 318 Valiant Drive Rockwall, TX 75032 $345,000 2,567 sq. ft. 7,405 sq. ft. $134
2018-06-28 Single Family Ranch 2098 State Hwy 66 Highway Rockwall, TX 75087 $155,000 1,680 sq. ft. 21,780 sq. ft. $92
2018-06-27 Single Family 404 Wildwood Lane Rockwall, TX 75087 $349,800 3,220 sq. ft. 15,246 sq. ft. $109
2018-06-27 Single Family Traditional 1001 Lazy Brooke Drive Rockwall, TX 75087 $549,990 4,056 sq. ft. $136
2018-06-26 Single Family 904 Chelsea Rockwall, TX 75032 $497,239 2,832 sq. ft. 43,560 sq. ft. $176
2018-06-26 Single Family 1601 Amalfi Rockwall, TX 75032 $298,001 2,064 sq. ft. 9,148 sq. ft. $144
2018-06-26 Single Family 1771 Amalfi Rockwall, TX 75032 $284,639 1,960 sq. ft. 8,276 sq. ft. $145
2018-06-26 Single Family French; Mediterranean 304 Shamrock Circle Rockwall, TX 75032 $399,000 6,600 sq. ft. 5,227 sq. ft. $60
2018-06-26 Single Family 121 Southwood Drive Rockwall, TX 75032 $275,000 3,104 sq. ft. 6,534 sq. ft. $89
2018-06-25 Single Family Traditional 7 Amanda Lane Rockwall, TX 75032 $399,000 2,530 sq. ft. 118,919 sq. ft. $158
2018-06-25 Single Family Traditional 526 Covey Trail Rockwall, TX 75087 $267,500 2,085 sq. ft. 8,276 sq. ft. $128
2018-06-25 Single Family Traditional 3702 Drewsbury Drive Rockwall, TX 75087 $429,900 3,820 sq. ft. 8,712 sq. ft. $113
2018-06-25 Single Family Traditional 4755 Bear Claw Lane Rockwall, TX 75032 $628,000 4,596 sq. ft. 64,904 sq. ft. $137
2018-06-24 Single Family Traditional 3919 Whitman Drive Rockwall, TX 75087 $395,815 2,419 sq. ft. 11,326 sq. ft. $164
2018-06-24 Single Family Traditional 1005 Windham Drive Rockwall, TX 75087 $400,355 2,419 sq. ft. 10,019 sq. ft. $166
2018-06-23 Single Family Traditional 1875 Bluebonnet Drive Rockwall, TX 75032 $875,000 4,762 sq. ft. 348,480 sq. ft. $184
2018-06-23 Single Family 1233 Blue Brook Drive Rockwall, TX 75087 $294,000 2,411 sq. ft. 8,712 sq. ft. $122
2018-06-23 Single Family Traditional 125 Mischief Lane Rockwall, TX 75032 $459,000 3,321 sq. ft. 7,405 sq. ft. $138
2018-06-22 Single Family Traditional 1910 Club Lake Circle Rockwall, TX 75087 $329,900 3,642 sq. ft. 7,841 sq. ft. $91
2018-06-22 Single Family Traditional 2082 English Road Rockwall, TX 75032 $770,000 4,199 sq. ft. 304,920 sq. ft. $183
2018-06-22 Single Family Mediterranean 3425 Augusta Boulevard Rockwall, TX 75087 $306,900 1,861 sq. ft. 5,227 sq. ft. $165
2018-06-22 Single Family Traditional 1841 Random Oaks Drive Rockwall, TX 75087 $324,900 2,425 sq. ft. 12,197 sq. ft. $134
2018-06-22 Single Family 2614 Long Common North Rockwall, TX 75032 $392,920 2,935 sq. ft. 9,148 sq. ft. $134
2018-06-21 Single Family Traditional 1713 Cliffbrook Drive Rockwall, TX 75032 $279,900 3,594 sq. ft. 7,405 sq. ft. $78
2018-06-21 Single Family 1518 Petaluma Drive Rockwall, TX 75087 $359,660 2,725 sq. ft. 8,712 sq. ft. $132
2018-06-21 Single Family Traditional 2004 Gullwing Drive Rockwall, TX 75087 $309,900 2,538 sq. ft. $122
2018-06-20 Single Family Traditional 675 Woodland Way Rockwall, TX 75087 $349,000 3,232 sq. ft. 6,534 sq. ft. $108
2018-06-20 Single Family 3024 Guadalupe Drive Rockwall, TX 75032 $337,990 2,855 sq. ft. 13,068 sq. ft. $118
2018-06-20 Single Family 4111 Quincy Street Rockwall, TX 75032 $379,740 2,700 sq. ft. 9,583 sq. ft. $141
2018-06-20 Single Family 1010 Lombard Drive Rockwall, TX 75087 $349,990 2,388 sq. ft. 8,712 sq. ft. $147
2018-06-19 Single Family Traditional 2911 Panhandle Drive Rockwall, TX 75087 $350,000 3,217 sq. ft. 10,019 sq. ft. $109
2018-06-18 Single Family 7104 Odell Avenue Rockwall, TX 75087 $339,990 2,613 sq. ft. 16,553 sq. ft. $130
2018-06-18 Single Family Mediterranean 2041 Pontchartrain Drive Rockwall, TX 75087 $398,500 2,485 sq. ft. 5,227 sq. ft. $160
2018-06-18 Single Family Traditional 117 Crestbrook Drive Rockwall, TX 75087 $459,000 3,648 sq. ft. 7,841 sq. ft. $126
2018-06-17 Single Family Traditional 1909 Lakeview Drive Rockwall, TX 75087 $265,500 2,162 sq. ft. 10,890 sq. ft. $123
2018-06-16 Single Family Traditional 1377 Stewart Drive Rockwall, TX 75032 $250,000 3,532 sq. ft. 11,761 sq. ft. $71
2018-06-16 Single Family Traditional 1225 Fairlakes Pointe Drive Rockwall, TX 75087 $384,000 2,512 sq. ft. 9,583 sq. ft. $153
2018-06-16 Single Family Traditional 7108 Odell Avenue Rockwall, TX 75087 $265,000 1,941 sq. ft. 19,166 sq. ft. $137
2018-06-15 Single Family Traditional 751 Black Oak Lane Rockwall, TX 75032 $369,900 2,862 sq. ft. 10,019 sq. ft. $129
2018-06-15 Single Family 4218 Selborne Drive Rockwall, TX 75032 $379,635 2,700 sq. ft. 9,148 sq. ft. $141
2018-06-15 Single Family 4105 Quincy Street Rockwall, TX 75032 $392,990 2,935 sq. ft. 11,761 sq. ft. $134
2018-06-15 Single Family Traditional 504 Carriage Trail Rockwall, TX 75087 $289,000 2,534 sq. ft. 10,890 sq. ft. $114
2018-06-15 Single Family Traditional 7104 Harlan Drive Rockwall, TX 75087 $270,000 2,824 sq. ft. 10,454 sq. ft. $96
2018-06-14 Single Family 517 Big Oak Court Rockwall, TX 75087 $319,900 2,664 sq. ft. 7,405 sq. ft. $120
2018-06-14 Single Family Traditional 401 Forest Trace Rockwall, TX 75087 $329,000 3,475 sq. ft. 10,890 sq. ft. $95
2018-06-14 Single Family 3113 Guadalupe Drive Rockwall, TX 75032 $380,277 2,614 sq. ft. 13,068 sq. ft. $145
2018-06-14 Single Family Traditional 603 Highview Lane Rockwall, TX 75087 $450,000 3,580 sq. ft. 10,019 sq. ft. $126
2018-06-14 Single Family Traditional 1386 White Water Lane Rockwall, TX 75087 $379,000 3,342 sq. ft. 7,405 sq. ft. $113
2018-06-14 Single Family Traditional 1140 Islemere Drive Rockwall, TX 75087 $332,500 2,910 sq. ft. 10,019 sq. ft. $114
2018-06-13 Single Family Traditional 709 Alexander Rockwall, TX 75087 $428,000 3,083 sq. ft. 10,890 sq. ft. $139
2018-06-13 Single Family Traditional 3920 Whitman Drive Rockwall, TX 75087 $350,990 2,863 sq. ft. 10,019 sq. ft. $123
2018-06-13 Single Family Split Level 203 Summit Ridge Drive Rockwall, TX 75087 $339,900 2,496 sq. ft. 9,583 sq. ft. $136
2018-06-13 Single Family Mediterranean 2926 Saratoga Drive Rockwall, TX 75087 $389,000 3,279 sq. ft. 8,276 sq. ft. $119
2018-06-12 Single Family 1517 Burlingame Drive Rockwall, TX 75087 $307,990 1,956 sq. ft. 10,890 sq. ft. $157
2018-06-12 Single Family 281 Cornstalk Road Rockwall, TX 75032 $929,000 4,958 sq. ft. 250,470 sq. ft. $187
2018-06-11 Single Family Traditional 1002 Catterick Drive Rockwall, TX 75087 $499,000 4,284 sq. ft. 10,019 sq. ft. $116
2018-06-09 Single Family Traditional 1045 Mont Cascades Drive Rockwall, TX 75087 $329,000 3,093 sq. ft. 7,405 sq. ft. $106
2018-06-09 Single Family Traditional 994 Safflower Court Rockwall, TX 75087 $325,000 2,992 sq. ft. 13,504 sq. ft. $109
2018-06-08 Single Family Ranch; Traditional 2285 Hodges Lake Drive Rockwall, TX 75032 $609,900 3,995 sq. ft. 50,094 sq. ft. $153
2018-06-08 Single Family Traditional 1415 Wheelers Way Rockwall, TX 75032 $499,000 3,640 sq. ft. 75,794 sq. ft. $137
2018-06-07 Single Family 3221 Wimberley Lane Rockwall, TX 75032 $381,148 3,170 sq. ft. 13,068 sq. ft. $120
2018-06-07 Single Family 3106 Guadalupe Drive Rockwall, TX 75032 $349,990 2,636 sq. ft. 4,356 sq. ft. $133
2018-06-06 Single Family Traditional 2245 Shorecrest Drive Rockwall, TX 75087 $284,500 2,361 sq. ft. 9,583 sq. ft. $120
2018-06-06 Single Family Traditional 3163 Oak Drive Rockwall, TX 75032 $299,900 2,363 sq. ft. 10,019 sq. ft. $127
2018-06-06 Single Family 623 Courageous Drive Rockwall, TX 75032 $375,000 2,851 sq. ft. 6,970 sq. ft. $132
2018-06-06 Single Family Traditional 1329 Calistoga Drive Rockwall, TX 75087 $295,000 2,397 sq. ft. 11,326 sq. ft. $123
2018-06-05 Single Family Traditional 214 Freedom Court Rockwall, TX 75032 $374,900 3,186 sq. ft. 12,632 sq. ft. $118
2018-06-03 Single Family Traditional 2701 Cedar Court Rockwall, TX 75032 $299,900 3,527 sq. ft. 12,632 sq. ft. $85
2018-06-01 Single Family Traditional 466 Geary Drive Rockwall, TX 75087 $264,900 2,507 sq. ft. 11,326 sq. ft. $106
2018-06-01 Single Family Traditional 302 Westway Circle Rockwall, TX 75087 $280,000 2,700 sq. ft. 12,632 sq. ft. $104
2018-06-01 Single Family Craftsman 5904 Yacht Club Drive Rockwall, TX 75032 $239,900 1,824 sq. ft. 10,454 sq. ft. $132
2018-06-01 Single Family Traditional 1465 Clubhill Drive Rockwall, TX 75087 $400,000 3,081 sq. ft. 9,148 sq. ft. $130
2018-05-31 Single Family Traditional 567 Featherstone Drive Rockwall, TX 75087 $489,900 4,316 sq. ft. 10,019 sq. ft. $114
2018-05-31 Single Family 456 Silver Spur Trail Rockwall, TX 75032 $460,164 3,014 sq. ft. 43,560 sq. ft. $153
2018-05-31 Single Family Traditional 997 Foxhall Drive Rockwall, TX 75087 $539,000 4,374 sq. ft. 10,019 sq. ft. $123
2018-05-31 Single Family Traditional 558 Presidio Drive Rockwall, TX 75087 $287,900 2,842 sq. ft. 7,841 sq. ft. $101
2018-05-31 Single Family Traditional 2360 Lake Forest Drive Rockwall, TX 75087 $520,000 4,099 sq. ft. 11,761 sq. ft. $127
2018-05-31 Single Family Traditional 438 Columbia Drive Rockwall, TX 75032 $459,000 3,354 sq. ft. 6,970 sq. ft. $137
2018-05-30 Single Family Traditional 601 Highview Lane Rockwall, TX 75087 $495,000 4,061 sq. ft. 10,890 sq. ft. $122
2018-05-28 Single Family Traditional 1970 Broken Lance Lane Rockwall, TX 75032 $799,000 6,165 sq. ft. 65,340 sq. ft. $130
2018-05-27 Single Family Traditional 679 Princeton Way Rockwall, TX 75087 $469,900 4,107 sq. ft. 10,019 sq. ft. $114
2018-05-24 Single Family 607 Clark Street Rockwall, TX 75087 $148,900 864 sq. ft. 7,405 sq. ft. $172
2018-05-22 Single Family Traditional 1614 Mannheim Drive Rockwall, TX 75032 $399,000 2,924 sq. ft. 5,663 sq. ft. $136
2018-05-22 Single Family Traditional 1574 Trowbridge Circle Rockwall, TX 75032 $359,000 2,550 sq. ft. 5,663 sq. ft. $141
2018-05-22 Single Family Traditional 1592 Trowbridge Circle Rockwall, TX 75032 $389,000 2,924 sq. ft. 5,663 sq. ft. $133
2018-05-22 Single Family Craftsman; Traditional 607 Park Place Boulevard Rockwall, TX 75087 $549,000 3,379 sq. ft. 6,534 sq. ft. $162
2018-05-21 Single Family Traditional 301 Lake Terrace Rockwall, TX 75087 $278,000 2,678 sq. ft. 13,939 sq. ft. $104
2018-05-21 Single Family Traditional 208 Harbor Landing Drive Rockwall, TX 75032 $339,000 2,659 sq. ft. 7,405 sq. ft. $127
2018-05-20 Single Family Traditional 1690 Winding Creek Lane Rockwall, TX 75032 $409,900 2,904 sq. ft. 65,340 sq. ft. $141
2018-05-20 Single Family 5453 Ranger Drive Rockwall, TX 75032 $312,500 2,260 sq. ft. 4,792 sq. ft. $138
2018-05-19 Single Family Traditional 1325 Shores Circle Rockwall, TX 75087 $329,000 2,838 sq. ft. 13,504 sq. ft. $116
2018-05-18 Single Family Traditional 536 Livestock Drive Rockwall, TX 75032 $549,000 4,154 sq. ft. 96,268 sq. ft. $132
2018-05-18 Single Family Ranch 264 Equestrian Drive Rockwall, TX 75032 $900,000 5,368 sq. ft. 44,867 sq. ft. $168
2018-05-17 Single Family Ranch 803 Kernodle Street Rockwall, TX 75087 $325,999 2,090 sq. ft. 29,185 sq. ft. $156
2018-05-17 Single Family Traditional 787 Bordeaux Drive Rockwall, TX 75087 $359,900 2,455 sq. ft. 9,583 sq. ft. $147
2018-05-17 Single Family Traditional 150 Willowcrest Rockwall, TX 75032 $447,000 2,898 sq. ft. 65,776 sq. ft. $154
2018-05-17 Single Family Traditional 4772 Secret Cove Rockwall, TX 75032 $438,000 3,988 sq. ft. 10,019 sq. ft. $110
2018-05-17 Single Family Traditional 915 Alamo Road Rockwall, TX 75087 $227,900 1,607 sq. ft. 14,810 sq. ft. $142
2018-05-16 Single Family Traditional 214 Glenn Avenue Rockwall, TX 75087 $265,000 2,514 sq. ft. 28,314 sq. ft. $105
2018-05-16 Single Family Traditional 2917 Newport Drive Rockwall, TX 75032 $269,900 2,500 sq. ft. 7,405 sq. ft. $108
2018-05-16 Single Family Traditional 2060 Ashbourne Drive Rockwall, TX 75087 $324,900 3,053 sq. ft. 7,841 sq. ft. $106
2018-05-15 Single Family Ranch 2605 Wincrest Drive Rockwall, TX 75032 $537,900 3,535 sq. ft. 65,340 sq. ft. $152
2018-05-15 Single Family Traditional 562 Featherstone Drive Rockwall, TX 75087 $499,500 4,110 sq. ft. 16,988 sq. ft. $122
2018-05-14 Single Family 890 Pleasant View Drive Rockwall, TX 75087 $515,000 4,116 sq. ft. 12,197 sq. ft. $125
2018-05-12 Single Family 5927 Volunteer Rockwall, TX 75032 $218,000 2,415 sq. ft. 3,485 sq. ft. $90
2018-05-12 Single Family Southwestern 2291 Fm 550 Rockwall, TX 75032 $1,275,000 6,454 sq. ft. 131,116 sq. ft. $198
2018-05-12 Single Family Contemporary/Modern 1897 Tahoe Drive Rockwall, TX 75087 $479,000 3,622 sq. ft. 6,098 sq. ft. $132
2018-05-10 Single Family Traditional 105 Thistle Place Rockwall, TX 75032 $284,500 2,567 sq. ft. 13,939 sq. ft. $111
2018-05-09 Single Family Traditional 355 St Michaels Way Rockwall, TX 75032 $549,900 4,008 sq. ft. 73,181 sq. ft. $137
2018-05-09 Single Family Traditional 938 Wisperwood Drive Rockwall, TX 75087 $279,000 2,670 sq. ft. 7,405 sq. ft. $104
2018-05-09 Single Family Traditional 3306 Royal Ridge Drive Rockwall, TX 75087 $449,990 3,635 sq. ft. $124
2018-05-08 Single Family Traditional 907 Midnight Pass Rockwall, TX 75087 $269,500 2,534 sq. ft. 9,148 sq. ft. $106
2018-05-08 Single Family Traditional 792 Featherstone Drive Rockwall, TX 75087 $385,000 3,123 sq. ft. 10,454 sq. ft. $123
2018-05-08 Single Family 1530 Petaluma Drive Rockwall, TX 75087 $316,870 2,110 sq. ft. 9,583 sq. ft. $150
2018-05-08 Single Family 1506 Petaluma Drive Rockwall, TX 75087 $372,905 2,725 sq. ft. 8,712 sq. ft. $137
2018-05-08 Single Family Traditional 664 Turtle Cove Boulevard Rockwall, TX 75087 $327,900 2,844 sq. ft. 5,663 sq. ft. $115
2018-05-08 Single Family Traditional 1461 Coastal Drive Rockwall, TX 75087 $465,000 4,150 sq. ft. 8,276 sq. ft. $112
2018-05-07 Single Family Traditional 2235 Arrowhead Court Rockwall, TX 75032 $739,000 3,995 sq. ft. 64,904 sq. ft. $185
2018-05-07 Single Family 814 Bear Branch Court Rockwall, TX 75087 $235,000 2,210 sq. ft. 7,405 sq. ft. $106
2018-05-06 Single Family Traditional 2045 Silver Hawk Court Rockwall, TX 75032 $750,000 5,881 sq. ft. 65,340 sq. ft. $128
2018-05-06 Single Family 6106 Volunteer Place Rockwall, TX 75032 $535,000 3,660 sq. ft. 11,326 sq. ft. $146
2018-05-06 Single Family Traditional 3323 Royal Ridge Drive Rockwall, TX 75087 $430,700 3,620 sq. ft. 7,405 sq. ft. $119
2018-05-06 Single Family Traditional 3297 Bastrop Court Rockwall, TX 75032 $419,900 3,617 sq. ft. 20,909 sq. ft. $116
2018-05-06 Single Family Traditional 920 Briar Oak Drive Rockwall, TX 75087 $300,000 2,711 sq. ft. 9,583 sq. ft. $111
2018-05-06 Single Family Traditional; Tudor 1613 Mannheim Drive Rockwall, TX 75032 $289,000 1,968 sq. ft. 6,534 sq. ft. $147
2018-05-06 Single Family Traditional 7105 Harlan Drive Rockwall, TX 75087 $269,000 2,038 sq. ft. 12,197 sq. ft. $132
2018-05-06 Single Family 303 Greenhill Lane Rockwall, TX 75087 $277,000 2,467 sq. ft. 10,019 sq. ft. $112
2018-04-24 Single Family 925 Mont Cascades Drive Rockwall, TX 75087 $419,000 4,464 sq. ft. 7,841 sq. ft. $94
2018-04-24 Single Family Traditional 2025 Broken Lance Lane Rockwall, TX 75032 $948,000 6,453 sq. ft. 65,340 sq. ft. $147
2018-04-20 Single Family Traditional 500 Highview Lane Rockwall, TX 75087 $385,000 3,541 sq. ft. 10,454 sq. ft. $109
2018-04-20 Single Family Ranch 205 Rockbrook Drive Rockwall, TX 75087 $285,900 2,999 sq. ft. 10,019 sq. ft. $95
2018-04-20 Single Family Traditional 700 Windsong Lane Rockwall, TX 75032 $454,900 3,447 sq. ft. 12,197 sq. ft. $132
2018-04-19 Single Family Traditional 813 Hunters Glen Rockwall, TX 75032 $438,000 3,791 sq. ft. 13,068 sq. ft. $116
2018-04-19 Single Family Traditional 995 Potter Avenue Rockwall, TX 75087 $449,900 4,834 sq. ft. 9,583 sq. ft. $93
2018-04-18 Single Family Traditional 5297 Fm 549 Rockwall, TX 75032 $1,695,000 7,150 sq. ft. 544,500 sq. ft. $237
2018-04-18 Single Family Traditional 211 Willowcreek Lane Rockwall, TX 75032 $399,950 2,784 sq. ft. 43,560 sq. ft. $144
2018-04-14 Single Family Traditional 222 Sovereign Court Rockwall, TX 75032 $299,900 2,625 sq. ft. $114
2018-04-12 Single Family Traditional 1074 Wisperwood Drive Rockwall, TX 75087 $299,500 2,678 sq. ft. 9,583 sq. ft. $112
2018-04-11 Single Family Traditional 940 Potter Avenue Rockwall, TX 75087 $375,000 3,317 sq. ft. 8,276 sq. ft. $113
2018-04-11 Single Family Traditional 3490 Hawthorne Trail Rockwall, TX 75032 $248,500 2,210 sq. ft. 10,454 sq. ft. $112
2018-04-09 Single Family Traditional 3291 Bastrop Court Rockwall, TX 75032 $368,900 2,750 sq. ft. 14,810 sq. ft. $134
2018-04-08 Single Family Traditional 4704 Greenbriar Court Rockwall, TX 75032 $629,000 4,670 sq. ft. 16,117 sq. ft. $135
2018-04-07 Single Family Traditional 921 Hunters Glen Rockwall, TX 75032 $332,500 2,710 sq. ft. 10,019 sq. ft. $123
2018-04-06 Single Family Traditional 946 Bluffview Drive Rockwall, TX 75087 $299,000 2,801 sq. ft. 6,098 sq. ft. $107
2018-04-06 Single Family Traditional 1634 Mannheim Drive Rockwall, TX 75032 $399,000 3,389 sq. ft. 7,405 sq. ft. $118
2018-04-06 Single Family Traditional 778 Mountcastle Drive Rockwall, TX 75087 $364,000 2,886 sq. ft. 8,712 sq. ft. $126
2018-04-06 Single Family Traditional 3319 Royal Ridge Drive Rockwall, TX 75087 $351,000 2,409 sq. ft. 8,712 sq. ft. $146
2018-04-05 Single Family Traditional 595 Bordeaux Drive Rockwall, TX 75087 $400,000 3,419 sq. ft. 9,148 sq. ft. $117
2018-04-04 Single Family Traditional 817 Calm Crest Drive Rockwall, TX 75087 $524,900 3,890 sq. ft. 20,038 sq. ft. $135
2018-04-04 Single Family Traditional 313 Russwood Street Rockwall, TX 75087 $326,000 3,000 sq. ft. 14,375 sq. ft. $109
2018-04-04 Single Family 1607 Mannheim Drive Rockwall, TX 75032 $348,500 2,977 sq. ft. 6,534 sq. ft. $117
2018-04-03 Single Family Traditional 437 Bedford Falls Lane Rockwall, TX 75087 $417,950 3,335 sq. ft. 10,019 sq. ft. $125
2018-04-02 Single Family Traditional 807 Knox Drive Rockwall, TX 75087 $405,000 3,557 sq. ft. 4,792 sq. ft. $114
2018-03-29 Single Family 1534 Petaluma Drive Rockwall, TX 75087 $349,870 2,419 sq. ft. 12,197 sq. ft. $145
2018-03-29 Single Family 788 Kensington Rockwall, TX 75032 $479,922 3,718 sq. ft. 47,916 sq. ft. $129
2018-03-28 Single Family 1612 Amalfi Rockwall, TX 75032 $289,500 1,960 sq. ft. 12,197 sq. ft. $148
2018-03-27 Single Family Traditional 453 Bedford Falls Lane Rockwall, TX 75087 $462,319 3,120 sq. ft. 10,019 sq. ft. $148
2018-03-24 Single Family Traditional 3920 Cameron Lane Rockwall, TX 75087 $362,990 2,976 sq. ft. 10,019 sq. ft. $122
2018-03-23 Single Family Contemporary/Modern 500 Emerson Drive Rockwall, TX 75087 $462,990 4,093 sq. ft. 6,534 sq. ft. $113
2018-03-23 Single Family Contemporary/Modern 524 Emerson Drive Rockwall, TX 75087 $479,990 4,093 sq. ft. 6,534 sq. ft. $117
2018-03-21 Single Family Traditional 1633 Trowbridge Circle Rockwall, TX 75032 $375,000 2,933 sq. ft. 6,098 sq. ft. $128
2018-03-17 Single Family Traditional 2805 Promenade Place Rockwall, TX 75087 $375,000 2,831 sq. ft. 10,019 sq. ft. $132
2018-03-15 Single Family Traditional 1539 Trowbridge Circle Rockwall, TX 75032 $365,000 2,394 sq. ft. 6,970 sq. ft. $152
2018-03-14 Single Family Traditional 2010 Pontchartrain Drive Rockwall, TX 75087 $312,500 2,199 sq. ft. 5,663 sq. ft. $142
2018-03-12 Single Family Traditional 3909 Whitman Drive Rockwall, TX 75087 $429,870 3,049 sq. ft. 11,326 sq. ft. $141
2018-03-12 Single Family Traditional 3915 Whitman Drive Rockwall, TX 75087 $459,235 3,302 sq. ft. 12,632 sq. ft. $139
2018-03-12 Single Family Traditional 3924 Whitman Drive Rockwall, TX 75087 $315,990 2,329 sq. ft. 10,019 sq. ft. $136
2018-03-08 Single Family Traditional 313 Harbor Landing Drive Rockwall, TX 75032 $450,000 5,343 sq. ft. 10,454 sq. ft. $84
2018-03-07 Single Family 353 Chris Drive Rockwall, TX 75032 $215,000 2,064 sq. ft. 6,970 sq. ft. $104
2018-03-06 Single Family 148 Haven Ridge Drive Rockwall, TX 75032 $299,900 3,323 sq. ft. 7,405 sq. ft. $90
2018-03-03 Single Family Traditional 669 York Drive Rockwall, TX 75087 $435,000 3,555 sq. ft. 7,405 sq. ft. $122
2018-02-27 Single Family Traditional 3069 Goliad Street Rockwall, TX 75087 $1,099,000 4,595 sq. ft. 512,701 sq. ft. $239
2018-02-27 Single Family Traditional 997 Lazy Brooke Drive Rockwall, TX 75087 $524,990 3,676 sq. ft. $143
2018-02-27 Single Family Ranch; Traditional 2201 Fm 550 Rockwall, TX 75032 $775,000 3,451 sq. ft. 435,600 sq. ft. $225
2018-02-27 Single Family Contemporary/Modern; Traditional 4080 Wincrest Drive Rockwall, TX 75032 $639,900 4,000 sq. ft. 43,560 sq. ft. $160
2018-02-27 Single Family Traditional 3911 Whitman Drive Rockwall, TX 75087 $395,595 2,419 sq. ft. 11,326 sq. ft. $164
2018-02-27 Single Family 678 St Johns Place Rockwall, TX 75087 $399,900 3,348 sq. ft. 12,197 sq. ft. $119
2018-02-27 Single Family 1736 Amalfi Rockwall, TX 75032 $306,699 2,225 sq. ft. 7,841 sq. ft. $138
2018-02-26 Single Family 304 Summit Ridge Drive Rockwall, TX 75087 $274,999 2,508 sq. ft. 12,632 sq. ft. $110
2018-01-20 Single Family Traditional 2625 Desert Falls Lane Rockwall, TX 75087 $365,000 3,610 sq. ft. 10,019 sq. ft. $101
2018-01-12 Single Family 812 Abington Rockwall, TX 75032 $464,292 3,014 sq. ft. 50,530 sq. ft. $154
2018-01-12 Single Family Traditional 1526 Derby Drive Rockwall, TX 75032 $318,000 2,129 sq. ft. 6,098 sq. ft. $149
2018-01-12 Single Family Traditional 1520 Derby Drive Rockwall, TX 75032 $399,000 3,237 sq. ft. 6,098 sq. ft. $123
2018-01-08 Single Family Traditional 1570 Winding Creek Lane Rockwall, TX 75032 $549,990 4,568 sq. ft. 65,340 sq. ft. $120
2017-12-29 Single Family Traditional 1533 Derby Drive Rockwall, TX 75032 $359,000 2,291 sq. ft. 6,534 sq. ft. $157
2017-12-17 Single Family Traditional 1605 Winding Creek Lane Rockwall, TX 75032 $474,990 3,939 sq. ft. 65,340 sq. ft. $121
2017-12-14 Single Family Traditional 791 Mountcastle Drive Rockwall, TX 75087 $429,000 3,183 sq. ft. 8,712 sq. ft. $135
2017-12-14 Single Family Traditional 1021 Calm Crest Drive Rockwall, TX 75087 $439,000 3,586 sq. ft. 8,712 sq. ft. $122
2017-12-14 Single Family Traditional 1013 Pleasant View Drive Rockwall, TX 75087 $459,000 3,936 sq. ft. 8,276 sq. ft. $117
2017-11-01 Single Family Split Level; Traditional 401A Country Ridge Rockwall, TX 75087 $925,000 6,100 sq. ft. 208,652 sq. ft. $152
2017-11-01 Single Family Craftsman 381 Jordan Farm Circle Rockwall, TX 75087 $379,900 2,313 sq. ft. 4,356 sq. ft. $164
2017-10-17 Single Family Traditional 1625 Winding Creek Lane Rockwall, TX 75032 $489,990 4,220 sq. ft. 65,340 sq. ft. $116
2017-10-14 Single Family Traditional 2920 Lago Vista Lane Rockwall, TX 75032 $349,000 3,024 sq. ft. 10,019 sq. ft. $115
2017-09-18 Single Family Traditional 925 Goliad Street Rockwall, TX 75087 $799,900 3,970 sq. ft. 43,560 sq. ft. $201
2017-07-27 Single Family 678 Princeton Way Rockwall, TX 75087 $429,900 4,142 sq. ft. 10,019 sq. ft. $104
2017-05-09 Single Family Traditional 319 Nakoma Drive Rockwall, TX 75087 $464,990 3,584 sq. ft. 10,890 sq. ft. $130
2017-04-28 Single Family Traditional 662 Chisholm Ridge Drive Rockwall, TX 75032 $1,150,000 7,424 sq. ft. 190,357 sq. ft. $155
2017-03-24 Single Family 10689 State Highway 205 Rockwall, TX 75032 $649,900 1,700 sq. ft. 121,097 sq. ft. $382
2017-03-22 Single Family Traditional 325 Nakoma Drive Rockwall, TX 75087 $503,990 4,051 sq. ft. 10,019 sq. ft. $124
2017-01-22 Single Family Traditional 703 Sam Houston Street Rockwall, TX 75087 $179,900 1,500 sq. ft. 10,019 sq. ft. $120
2015-10-05 Single Family Traditional 5565 Fm 549 Rockwall, TX 75032 $6,500,000 7,877 sq. ft. 2,003,760 sq. ft. $825